Time;durP1;ratioP1;P1;durP2;ratioP2;P2;SDS_P1;SDS_P2;PMS_P1;PMS_P2;Temp;Humidity;BMP_temperature;BMP_pressure;BME280_temperature;BME280_humidity;BME280_pressure;Samples;Min_cycle;Max_cycle;Signal;HPM_P1;HPM_P2
2022/12/20 00:02:27;;;;;;;3.47;2.43;;;;;;;;;;4967090;28;20548;-58
2022/12/20 00:04:53;;;;;;;3.50;2.33;;;;;;;;;;4967016;28;20192;-56
2022/12/20 00:07:19;;;;;;;2.30;2.10;;;;;;;;;;4964307;28;20180;-59
2022/12/20 00:09:46;;;;;;;2.50;2.30;;;;;;;;;;4948934;28;20237;-56
2022/12/20 00:12:12;;;;;;;2.23;2.03;;;;;;;;;;4965887;28;20206;-59
2022/12/20 00:14:39;;;;;;;2.23;2.03;;;;;;;;;;4970774;28;20228;-57
2022/12/20 00:17:05;;;;;;;3.37;2.10;;;;;;;;;;4970105;28;20246;-56
2022/12/20 00:19:31;;;;;;;2.40;2.20;;;;;;;;;;4968798;28;20184;-56
2022/12/20 00:21:57;;;;;;;3.67;1.90;;;;;;;;;;4968275;28;20184;-56
2022/12/20 00:24:24;;;;;;;2.60;2.33;;;;;;;;;;4971021;28;20231;-56
2022/12/20 00:26:50;;;;;;;2.40;2.20;;;;;;;;;;4968876;28;20210;-56
2022/12/20 00:29:19;;;;;;;3.43;2.47;;;;;;;;;;4967589;28;20183;-60
2022/12/20 00:31:46;;;;;;;2.50;2.30;;;;;;;;;;4971176;28;20235;-56
2022/12/20 00:34:12;;;;;;;3.03;2.07;;;;;;;;;;4968847;28;20598;-56
2022/12/20 00:36:39;;;;;;;2.60;2.40;;;;;;;;;;4968281;28;20223;-57
2022/12/20 00:39:05;;;;;;;2.50;2.30;;;;;;;;;;4969447;28;20262;-56
2022/12/20 00:41:33;;;;;;;2.17;1.97;;;;;;;;;;4967616;28;20802;-56
2022/12/20 00:43:59;;;;;;;3.57;2.30;;;;;;;;;;4968253;28;20172;-56
2022/12/20 00:46:29;;;;;;;3.20;2.10;;;;;;;;;;4968788;28;20207;-57
2022/12/20 00:48:55;;;;;;;3.23;2.40;;;;;;;;;;4952652;28;20218;-56
2022/12/20 00:51:23;;;;;;;2.67;2.13;;;;;;;;;;4967017;28;20632;-56
2022/12/20 00:53:49;;;;;;;4.10;2.13;;;;;;;;;;4969005;28;20164;-56
2022/12/20 00:56:15;;;;;;;2.57;2.10;;;;;;;;;;4967955;28;20176;-56
2022/12/20 00:58:43;;;;;;;2.37;2.13;;;;;;;;;;4968673;28;20614;-56
2022/12/20 01:01:23;;;;;;;2.13;1.93;;;;;;;;;;4967576;28;20195;-56
2022/12/20 01:03:50;;;;;;;2.63;2.27;;;;;;;;;;4966719;28;20198;-56
2022/12/20 01:06:16;;;;;;;2.80;2.20;;;;;;;;;;4967392;28;20883;-56
2022/12/20 01:08:42;;;;;;;2.00;1.90;;;;;;;;;;4967310;28;20188;-56
2022/12/20 01:11:10;;;;;;;2.40;2.20;;;;;;;;;;4965382;28;20548;-56
2022/12/20 01:13:38;;;;;;;2.57;2.00;;;;;;;;;;4968425;28;20183;-56
2022/12/20 01:16:14;;;;;;;3.43;2.40;;;;;;;;;;4968868;28;20561;-56
2022/12/20 01:18:40;;;;;;;2.20;2.00;;;;;;;;;;4968440;28;20196;-56
2022/12/20 01:21:08;;;;;;;2.20;1.90;;;;;;;;;;4965431;28;20199;-56
2022/12/20 01:23:35;;;;;;;2.23;2.03;;;;;;;;;;4967031;28;20184;-56
2022/12/20 01:26:03;;;;;;;1.70;1.60;;;;;;;;;;4968555;28;20176;-56
2022/12/20 01:28:30;;;;;;;2.40;1.90;;;;;;;;;;4968929;28;20206;-56
2022/12/20 01:30:56;;;;;;;3.27;2.10;;;;;;;;;;4965703;28;20203;-56
2022/12/20 01:33:22;;;;;;;2.30;1.90;;;;;;;;;;4964480;28;20184;-56
2022/12/20 01:35:58;;;;;;;2.53;1.87;;;;;;;;;;4964905;28;20251;-56
2022/12/20 01:38:25;;;;;;;2.13;1.97;;;;;;;;;;4967518;28;20249;-56
2022/12/20 01:40:51;;;;;;;2.80;1.90;;;;;;;;;;4967766;28;20758;-56
2022/12/20 01:43:18;;;;;;;2.40;2.20;;;;;;;;;;4966835;28;20345;-56
2022/12/20 01:45:45;;;;;;;1.97;1.77;;;;;;;;;;4965974;28;20696;-56
2022/12/20 01:48:12;;;;;;;2.67;2.17;;;;;;;;;;4967460;28;20712;-56
2022/12/20 01:50:38;;;;;;;3.43;2.60;;;;;;;;;;4965526;28;20226;-56
2022/12/20 01:53:05;;;;;;;2.83;2.10;;;;;;;;;;4965568;28;20176;-56
2022/12/20 01:55:31;;;;;;;2.30;2.10;;;;;;;;;;4968026;28;20244;-56
2022/12/20 01:58:08;;;;;;;2.33;2.00;;;;;;;;;;4968701;28;20659;-56
2022/12/20 02:00:36;;;;;;;2.00;1.90;;;;;;;;;;4964782;28;20187;-56
2022/12/20 02:03:03;;;;;;;2.63;2.23;;;;;;;;;;4961241;28;20545;-56
2022/12/20 02:05:33;;;;;;;2.10;1.90;;;;;;;;;;4966995;28;20261;-56
2022/12/20 02:07:59;;;;;;;4.03;1.97;;;;;;;;;;4966370;28;20194;-56
2022/12/20 02:10:29;;;;;;;3.30;2.10;;;;;;;;;;4962833;28;20208;-56
2022/12/20 02:13:01;;;;;;;2.20;2.00;;;;;;;;;;4963893;28;20655;-56
2022/12/20 02:15:32;;;;;;;2.80;2.07;;;;;;;;;;4965079;28;20226;-56
2022/12/20 02:18:01;;;;;;;2.07;1.83;;;;;;;;;;4966036;28;20688;-56
2022/12/20 02:20:43;;;;;;;5.50;1.70;;;;;;;;;;4967572;28;20184;-56
2022/12/20 02:23:09;;;;;;;2.73;1.60;;;;;;;;;;4964095;28;20644;-56
2022/12/20 02:25:54;;;;;;;2.17;1.97;;;;;;;;;;4968142;28;20191;-56
2022/12/20 02:28:20;;;;;;;3.23;2.37;;;;;;;;;;4967718;28;20246;-56
2022/12/20 02:30:47;;;;;;;2.10;2.00;;;;;;;;;;4961568;28;20220;-56
2022/12/20 02:33:14;;;;;;;5.10;2.10;;;;;;;;;;4961511;28;20231;-56
2022/12/20 02:35:40;;;;;;;3.23;2.07;;;;;;;;;;4967857;28;20161;-55
2022/12/20 02:38:25;;;;;;;2.43;2.10;;;;;;;;;;4966730;28;20678;-55
2022/12/20 02:40:53;;;;;;;2.00;1.80;;;;;;;;;;4962044;28;20187;-57
2022/12/20 02:46:14;;;;;;;3.60;2.17;;;;;;;;;;4949968;28;20736;-56
2022/12/20 02:48:40;;;;;;;4.23;2.17;;;;;;;;;;4964140;28;20186;-57
2022/12/20 02:51:08;;;;;;;3.17;2.20;;;;;;;;;;4971787;28;20230;-56
2022/12/20 02:53:35;;;;;;;2.00;1.80;;;;;;;;;;4972762;28;20651;-57
2022/12/20 02:56:05;;;;;;;2.50;2.30;;;;;;;;;;4967625;28;20226;-57
2022/12/20 02:58:40;;;;;;;3.50;2.40;;;;;;;;;;4964810;28;20686;-57
2022/12/20 03:01:08;;;;;;;2.33;2.13;;;;;;;;;;4966706;28;20238;-57
2022/12/20 03:03:35;;;;;;;2.53;2.33;;;;;;;;;;4967238;28;20183;-56
2022/12/20 03:06:01;;;;;;;2.00;1.80;;;;;;;;;;4965817;28;20718;-56
2022/12/20 03:08:28;;;;;;;2.43;2.23;;;;;;;;;;4964724;28;20215;-57
2022/12/20 03:10:54;;;;;;;3.37;2.37;;;;;;;;;;4966141;28;20203;-57
2022/12/20 03:13:21;;;;;;;2.93;2.37;;;;;;;;;;4958572;28;20731;-57
2022/12/20 03:15:47;;;;;;;5.23;2.60;;;;;;;;;;4966675;28;20539;-57
2022/12/20 03:18:13;;;;;;;2.27;2.07;;;;;;;;;;4966031;28;20298;-57
2022/12/20 03:20:45;;;;;;;2.70;2.50;;;;;;;;;;4967439;28;20164;-57
2022/12/20 03:23:12;;;;;;;3.20;2.60;;;;;;;;;;4965038;28;20262;-56
2022/12/20 03:25:38;;;;;;;4.17;2.83;;;;;;;;;;4967082;28;20178;-56
2022/12/20 03:28:04;;;;;;;2.80;2.60;;;;;;;;;;4966658;28;20183;-56
2022/12/20 03:30:30;;;;;;;2.73;2.53;;;;;;;;;;4965092;28;20266;-56
2022/12/20 03:32:56;;;;;;;2.93;2.63;;;;;;;;;;4966052;28;20516;-56
2022/12/20 03:35:22;;;;;;;3.33;2.77;;;;;;;;;;4967258;28;20566;-56
2022/12/20 03:37:48;;;;;;;3.20;2.80;;;;;;;;;;4947757;28;20662;-56
2022/12/20 03:40:14;;;;;;;4.53;3.17;;;;;;;;;;4963598;28;20206;-56
2022/12/20 03:42:42;;;;;;;3.33;3.03;;;;;;;;;;4962507;28;20501;-56
2022/12/20 03:45:08;;;;;;;2.80;2.60;;;;;;;;;;4966365;28;20156;-56
2022/12/20 03:47:34;;;;;;;2.70;2.50;;;;;;;;;;4968114;28;20180;-56
2022/12/20 03:50:00;;;;;;;3.63;2.80;;;;;;;;;;4971058;28;20164;-56
2022/12/20 03:52:26;;;;;;;3.27;2.97;;;;;;;;;;4968316;28;20203;-56
2022/12/20 03:54:52;;;;;;;3.67;3.00;;;;;;;;;;4965508;28;20184;-56
2022/12/20 03:57:25;;;;;;;5.40;3.27;;;;;;;;;;4969064;28;20186;-57
2022/12/20 03:59:51;;;;;;;5.47;3.40;;;;;;;;;;4970428;28;20625;-56
2022/12/20 04:02:17;;;;;;;3.40;3.10;;;;;;;;;;4966673;28;20184;-56
2022/12/20 04:04:43;;;;;;;4.30;3.17;;;;;;;;;;4970399;28;20168;-57
2022/12/20 04:07:09;;;;;;;3.30;3.00;;;;;;;;;;4968857;28;20194;-57
2022/12/20 04:09:35;;;;;;;4.43;2.80;;;;;;;;;;4970556;28;20621;-57
2022/12/20 04:12:01;;;;;;;5.17;3.20;;;;;;;;;;4962603;28;20753;-57
2022/12/20 04:14:27;;;;;;;3.57;3.07;;;;;;;;;;4967738;28;20182;-57
2022/12/20 04:16:53;;;;;;;4.10;3.80;;;;;;;;;;4969188;28;20642;-57
2022/12/20 04:19:19;;;;;;;3.10;2.80;;;;;;;;;;4970380;28;20210;-56
2022/12/20 04:21:45;;;;;;;3.80;2.80;;;;;;;;;;4968419;28;20231;-56
2022/12/20 04:24:11;;;;;;;5.43;3.20;;;;;;;;;;4967592;28;20211;-56
2022/12/20 04:26:37;;;;;;;4.27;2.97;;;;;;;;;;4969349;28;20382;-56
2022/12/20 04:29:04;;;;;;;4.03;3.07;;;;;;;;;;4969235;28;20191;-56
2022/12/20 04:31:30;;;;;;;4.17;3.73;;;;;;;;;;4968110;28;20231;-57
2022/12/20 04:33:56;;;;;;;4.17;3.43;;;;;;;;;;4968861;28;20239;-56
2022/12/20 04:36:22;;;;;;;6.23;3.53;;;;;;;;;;4969211;28;20466;-56
2022/12/20 04:38:48;;;;;;;4.33;3.80;;;;;;;;;;4968520;28;20845;-56
2022/12/20 04:41:21;;;;;;;3.60;3.30;;;;;;;;;;4967437;28;20180;-56
2022/12/20 04:43:54;;;;;;;4.63;3.90;;;;;;;;;;4968100;28;20215;-56
2022/12/20 04:46:20;;;;;;;6.97;3.93;;;;;;;;;;4967896;28;20186;-57
2022/12/20 04:48:46;;;;;;;3.50;3.20;;;;;;;;;;4969221;28;20624;-56
2022/12/20 04:51:12;;;;;;;4.30;3.47;;;;;;;;;;4966879;28;20214;-57
2022/12/20 04:53:48;;;;;;;4.43;3.60;;;;;;;;;;4968114;28;20679;-57
2022/12/20 04:56:15;;;;;;;4.80;3.77;;;;;;;;;;4967125;28;20171;-57
2022/12/20 04:58:41;;;;;;;4.03;3.63;;;;;;;;;;4967121;28;20589;-57
2022/12/20 05:01:07;;;;;;;4.30;3.57;;;;;;;;;;4967652;28;20268;-56
2022/12/20 05:03:33;;;;;;;3.47;3.17;;;;;;;;;;4969167;28;20250;-57
2022/12/20 05:05:59;;;;;;;4.13;3.73;;;;;;;;;;4967741;28;20196;-57
2022/12/20 05:08:25;;;;;;;6.93;3.83;;;;;;;;;;4968760;28;20164;-56
2022/12/20 05:10:52;;;;;;;3.93;3.53;;;;;;;;;;4943828;28;20204;-56
2022/12/20 05:13:18;;;;;;;4.43;3.60;;;;;;;;;;4950777;28;20643;-57
2022/12/20 05:15:44;;;;;;;4.83;3.60;;;;;;;;;;4968778;28;20186;-56
2022/12/20 05:18:10;;;;;;;3.67;3.37;;;;;;;;;;4952545;28;20493;-56
2022/12/20 05:20:36;;;;;;;4.60;3.60;;;;;;;;;;4958139;28;20525;-56
2022/12/20 05:28:33;;;;;;;4.07;2.97;;;;;;;;;;4966887;28;20234;-57
2022/12/20 05:31:00;;;;;;;3.40;3.10;;;;;;;;;;4959693;28;20237;-57
2022/12/20 05:33:26;;;;;;;4.70;3.80;;;;;;;;;;4968779;28;20829;-57
2022/12/20 05:35:52;;;;;;;3.43;2.87;;;;;;;;;;4968541;28;20667;-57
2022/12/20 05:38:18;;;;;;;4.37;3.40;;;;;;;;;;4947894;28;20619;-57
2022/12/20 05:40:47;;;;;;;3.77;3.47;;;;;;;;;;4942763;28;20194;-56
2022/12/20 05:43:13;;;;;;;3.83;3.33;;;;;;;;;;4947801;28;20191;-57
2022/12/20 05:45:39;;;;;;;3.50;3.20;;;;;;;;;;4949733;28;20594;-57
2022/12/20 05:48:05;;;;;;;4.13;3.57;;;;;;;;;;4968769;28;20623;-57
2022/12/20 05:50:31;;;;;;;3.87;3.43;;;;;;;;;;4961343;28;20204;-57
2022/12/20 05:52:57;;;;;;;3.40;2.97;;;;;;;;;;4959513;28;20419;-57
2022/12/20 05:55:23;;;;;;;3.77;3.10;;;;;;;;;;4967465;28;20234;-57
2022/12/20 05:57:49;;;;;;;5.73;3.30;;;;;;;;;;4964410;28;20543;-57
2022/12/20 06:00:15;;;;;;;5.53;3.53;;;;;;;;;;4957831;28;20188;-57
2022/12/20 06:02:41;;;;;;;3.57;3.10;;;;;;;;;;4962597;28;20682;-57
2022/12/20 06:05:07;;;;;;;3.77;2.97;;;;;;;;;;4963288;28;20545;-57
2022/12/20 06:07:33;;;;;;;4.30;3.47;;;;;;;;;;4963922;28;20184;-56
2022/12/20 06:10:00;;;;;;;4.20;3.00;;;;;;;;;;4964665;28;20180;-58
2022/12/20 06:12:26;;;;;;;3.07;2.87;;;;;;;;;;4960303;28;20207;-57
2022/12/20 06:14:52;;;;;;;5.03;3.37;;;;;;;;;;4968262;28;20258;-57
2022/12/20 06:17:18;;;;;;;4.20;3.10;;;;;;;;;;4950497;28;20180;-57
2022/12/20 06:19:45;;;;;;;3.67;3.10;;;;;;;;;;4966605;28;20187;-57
2022/12/20 06:22:12;;;;;;;4.37;3.27;;;;;;;;;;4963871;28;20278;-57
2022/12/20 06:24:38;;;;;;;4.60;3.37;;;;;;;;;;4967125;28;20187;-57
2022/12/20 06:27:05;;;;;;;5.40;3.57;;;;;;;;;;4967733;28;20180;-58
2022/12/20 06:29:32;;;;;;;2.80;2.30;;;;;;;;;;4967393;28;20194;-57
2022/12/20 06:31:58;;;;;;;3.43;2.70;;;;;;;;;;4964282;28;20235;-57
2022/12/20 06:34:24;;;;;;;4.17;2.80;;;;;;;;;;4964075;28;20178;-57
2022/12/20 06:36:50;;;;;;;3.37;2.60;;;;;;;;;;4947075;28;20208;-57
2022/12/20 06:39:16;;;;;;;3.90;3.47;;;;;;;;;;4962462;28;20638;-57
2022/12/20 06:41:43;;;;;;;3.43;3.10;;;;;;;;;;4949598;28;20592;-57
2022/12/20 06:44:09;;;;;;;3.27;2.80;;;;;;;;;;4968678;28;20175;-57
2022/12/20 06:46:35;;;;;;;6.70;3.30;;;;;;;;;;4965951;28;20246;-57
2022/12/20 06:49:01;;;;;;;3.37;2.50;;;;;;;;;;4967106;28;20180;-56
2022/12/20 06:51:27;;;;;;;3.80;2.60;;;;;;;;;;4964677;28;20194;-57
2022/12/20 06:53:53;;;;;;;2.90;2.70;;;;;;;;;;4964015;28;20298;-56
2022/12/20 06:56:19;;;;;;;4.13;2.63;;;;;;;;;;4946261;28;20176;-56
2022/12/20 06:58:46;;;;;;;2.90;2.57;;;;;;;;;;4966141;28;20325;-56
2022/12/20 07:01:12;;;;;;;2.80;2.40;;;;;;;;;;4963804;28;20739;-57
2022/12/20 07:03:38;;;;;;;3.03;2.73;;;;;;;;;;4958823;28;20670;-56
2022/12/20 07:06:04;;;;;;;4.10;2.70;;;;;;;;;;4962637;28;20549;-57
2022/12/20 07:08:30;;;;;;;3.27;2.97;;;;;;;;;;4963423;28;20176;-57
2022/12/20 07:11:02;;;;;;;3.60;2.77;;;;;;;;;;4963870;28;20204;-56
2022/12/20 07:13:28;;;;;;;3.33;2.73;;;;;;;;;;4964308;28;20211;-57
2022/12/20 07:15:58;;;;;;;2.97;2.70;;;;;;;;;;4958159;28;20187;-57
2022/12/20 07:18:24;;;;;;;4.73;2.67;;;;;;;;;;4961033;28;20199;-57
2022/12/20 07:20:50;;;;;;;3.50;2.93;;;;;;;;;;4964848;28;20188;-57
2022/12/20 07:23:17;;;;;;;3.50;2.63;;;;;;;;;;4965051;28;20187;-56
2022/12/20 07:25:47;;;;;;;3.70;3.00;;;;;;;;;;4966605;28;20179;-57
2022/12/20 07:28:13;;;;;;;2.90;2.40;;;;;;;;;;4960347;28;20196;-56
2022/12/20 07:30:39;;;;;;;3.17;2.73;;;;;;;;;;4962440;28;20214;-57
2022/12/20 07:33:09;;;;;;;2.87;2.37;;;;;;;;;;4950296;28;20231;-57
2022/12/20 07:35:35;;;;;;;2.60;2.40;;;;;;;;;;4965449;28;20168;-57
2022/12/20 07:38:01;;;;;;;2.43;2.23;;;;;;;;;;4952056;28;20654;-57
2022/12/20 07:40:27;;;;;;;3.97;2.83;;;;;;;;;;4954031;28;20651;-57
2022/12/20 07:42:53;;;;;;;2.80;2.60;;;;;;;;;;4951843;28;22108;-57
2022/12/20 07:45:19;;;;;;;3.70;3.37;;;;;;;;;;4964566;28;20626;-57
2022/12/20 07:47:45;;;;;;;3.30;3.00;;;;;;;;;;4962694;28;20191;-57
2022/12/20 07:50:11;;;;;;;4.13;3.00;;;;;;;;;;4962130;28;20256;-57
2022/12/20 07:52:37;;;;;;;4.13;2.80;;;;;;;;;;4962460;28;20245;-57
2022/12/20 07:55:05;;;;;;;3.13;2.63;;;;;;;;;;4949362;28;20365;-57
2022/12/20 07:57:34;;;;;;;4.37;2.50;;;;;;;;;;4965357;28;20222;-57
2022/12/20 08:00:01;;;;;;;3.03;2.80;;;;;;;;;;4941344;28;20194;-57
2022/12/20 08:02:53;;;;;;;3.00;2.70;;;;;;;;;;4965481;28;20183;-57
2022/12/20 08:05:20;;;;;;;2.93;2.73;;;;;;;;;;4936142;28;20196;-57
2022/12/20 08:07:47;;;;;;;3.80;2.90;;;;;;;;;;4964908;28;20183;-56
2022/12/20 08:10:14;;;;;;;3.17;2.87;;;;;;;;;;4964722;28;20188;-57
2022/12/20 08:12:41;;;;;;;2.53;2.33;;;;;;;;;;4959862;28;20186;-57
2022/12/20 08:15:07;;;;;;;3.40;2.80;;;;;;;;;;4965996;28;20255;-57
2022/12/20 08:17:33;;;;;;;3.10;2.60;;;;;;;;;;4962232;28;20714;-57
2022/12/20 08:19:59;;;;;;;3.07;2.30;;;;;;;;;;4965498;28;20634;-56
2022/12/20 08:22:26;;;;;;;3.40;2.43;;;;;;;;;;4965021;28;20694;-56
2022/12/20 08:24:52;;;;;;;3.30;2.37;;;;;;;;;;4965360;28;20188;-57
2022/12/20 08:27:18;;;;;;;3.83;2.80;;;;;;;;;;4963729;28;20611;-57
2022/12/20 08:29:44;;;;;;;2.90;2.50;;;;;;;;;;4964610;28;20221;-57
2022/12/20 08:32:11;;;;;;;3.53;2.73;;;;;;;;;;4964810;28;20236;-56
2022/12/20 08:34:38;;;;;;;3.37;3.00;;;;;;;;;;4965974;28;20274;-57
2022/12/20 08:37:04;;;;;;;2.67;2.47;;;;;;;;;;4968224;28;20719;-57
2022/12/20 08:39:30;;;;;;;4.70;2.80;;;;;;;;;;4967814;28;20172;-57
2022/12/20 08:42:04;;;;;;;5.70;3.10;;;;;;;;;;4968209;28;20187;-57
2022/12/20 08:44:30;;;;;;;5.47;2.87;;;;;;;;;;4969508;28;20447;-57
2022/12/20 08:46:56;;;;;;;3.00;2.70;;;;;;;;;;4966889;28;20832;-57
2022/12/20 08:49:22;;;;;;;4.50;3.00;;;;;;;;;;4968605;28;20227;-57
2022/12/20 08:51:48;;;;;;;2.73;2.53;;;;;;;;;;4967750;28;20203;-57
2022/12/20 08:54:16;;;;;;;2.90;2.60;;;;;;;;;;4968211;28;20191;-57
2022/12/20 08:56:42;;;;;;;2.67;2.47;;;;;;;;;;4969448;28;20167;-57
2022/12/20 08:59:08;;;;;;;2.93;2.47;;;;;;;;;;4966000;28;20184;-57
2022/12/20 09:01:34;;;;;;;3.17;2.40;;;;;;;;;;4963577;28;20195;-57
2022/12/20 09:04:00;;;;;;;2.67;2.30;;;;;;;;;;4947308;28;20239;-56
2022/12/20 09:06:26;;;;;;;2.97;2.70;;;;;;;;;;4967317;28;20180;-57
2022/12/20 09:08:54;;;;;;;3.50;3.08;;;;;;;;;;4963875;28;21008;-57
2022/12/20 09:11:22;;;;;;;3.23;2.50;;;;;;;;;;4947337;28;20188;-56
2022/12/20 09:13:48;;;;;;;2.77;2.33;;;;;;;;;;4963358;28;20525;-57
2022/12/20 09:16:15;;;;;;;3.73;2.47;;;;;;;;;;4963639;28;20180;-57
2022/12/20 09:18:42;;;;;;;4.47;2.87;;;;;;;;;;4966515;28;20494;-56
2022/12/20 09:21:08;;;;;;;3.13;2.60;;;;;;;;;;4966525;28;20278;-56
2022/12/20 09:23:35;;;;;;;2.73;2.43;;;;;;;;;;4965705;28;20270;-57
2022/12/20 09:26:05;;;;;;;4.47;2.57;;;;;;;;;;4967752;28;20314;-57
2022/12/20 09:28:32;;;;;;;2.80;2.60;;;;;;;;;;4945247;28;20283;-56
2022/12/20 09:31:02;;;;;;;2.70;2.50;;;;;;;;;;4964807;28;20212;-57
2022/12/20 09:33:29;;;;;;;3.00;2.50;;;;;;;;;;4963165;28;20228;-58
2022/12/20 09:35:55;;;;;;;5.37;2.70;;;;;;;;;;4963461;28;20211;-57
2022/12/20 09:38:21;;;;;;;2.90;2.60;;;;;;;;;;4964089;28;20238;-57
2022/12/20 09:40:49;;;;;;;4.37;2.47;;;;;;;;;;4967592;28;20172;-56
2022/12/20 09:43:15;;;;;;;3.83;2.97;;;;;;;;;;4968431;28;20194;-57
2022/12/20 09:45:42;;;;;;;4.80;2.77;;;;;;;;;;4967956;28;20239;-57
2022/12/20 09:48:17;;;;;;;3.50;2.53;;;;;;;;;;4966850;28;20186;-58
2022/12/20 09:50:53;;;;;;;3.07;2.77;;;;;;;;;;4962409;28;20321;-57
2022/12/20 09:53:27;;;;;;;4.40;2.63;;;;;;;;;;4967166;28;20513;-58
2022/12/20 09:55:58;;;;;;;7.37;2.73;;;;;;;;;;4963693;28;20172;-57
2022/12/20 09:58:47;;;;;;;3.50;3.17;;;;;;;;;;4966781;28;20180;-57
2022/12/20 10:01:17;;;;;;;3.43;2.73;;;;;;;;;;4958587;28;20707;-58
2022/12/20 10:03:44;;;;;;;4.10;3.00;;;;;;;;;;4966883;28;20191;-57
2022/12/20 10:06:22;;;;;;;5.47;2.60;;;;;;;;;;4968175;28;20314;-56
2022/12/20 10:08:55;;;;;;;4.63;2.93;;;;;;;;;;4966484;28;20776;-57
2022/12/20 10:11:45;;;;;;;3.30;2.97;;;;;;;;;;4963047;28;20581;-57
2022/12/20 10:14:14;;;;;;;3.40;3.10;;;;;;;;;;4967090;28;20164;-58
2022/12/20 10:16:47;;;;;;;6.77;3.13;;;;;;;;;;4959045;28;20475;-58
2022/12/20 10:19:16;;;;;;;3.03;2.67;;;;;;;;;;4964465;28;20207;-57
2022/12/20 10:21:55;;;;;;;7.43;3.10;;;;;;;;;;4965263;28;20184;-57
2022/12/20 10:24:27;;;;;;;4.70;3.40;;;;;;;;;;4962222;28;20229;-56
2022/12/20 10:26:53;;;;;;;5.37;2.80;;;;;;;;;;4965388;28;20192;-58
2022/12/20 10:29:20;;;;;;;3.53;3.00;;;;;;;;;;4966815;28;20309;-57
2022/12/20 10:31:47;;;;;;;4.57;3.50;;;;;;;;;;4965699;28;20209;-57
2022/12/20 10:34:14;;;;;;;4.13;2.77;;;;;;;;;;4965619;28;20603;-57
2022/12/20 10:36:40;;;;;;;3.53;2.37;;;;;;;;;;4965340;28;20195;-60
2022/12/20 10:39:08;;;;;;;3.33;3.03;;;;;;;;;;4966285;28;20175;-61
2022/12/20 10:41:54;;;;;;;4.27;2.67;;;;;;;;;;4967104;28;20179;-57
2022/12/20 10:44:23;;;;;;;4.83;3.10;;;;;;;;;;4968028;28;20637;-56
2022/12/20 10:46:52;;;;;;;3.60;2.63;;;;;;;;;;4967426;28;20646;-56
2022/12/20 10:49:22;;;;;;;4.97;2.80;;;;;;;;;;4966653;28;20569;-55
2022/12/20 10:51:52;;;;;;;5.70;3.70;;;;;;;;;;4963963;28;20701;-57
2022/12/20 10:54:28;;;;;;;5.77;2.77;;;;;;;;;;4966360;28;20634;-59
2022/12/20 10:57:02;;;;;;;4.70;2.50;;;;;;;;;;4950257;28;20183;-60
2022/12/20 10:59:36;;;;;;;6.30;3.67;;;;;;;;;;4962755;28;20787;-58
2022/12/20 11:02:03;;;;;;;5.37;3.10;;;;;;;;;;4965155;28;20219;-59
2022/12/20 11:04:34;;;;;;;3.10;2.50;;;;;;;;;;4966062;28;20191;-60
2022/12/20 11:07:01;;;;;;;5.20;3.20;;;;;;;;;;4959955;28;20179;-57
2022/12/20 11:09:30;;;;;;;3.67;2.73;;;;;;;;;;4965413;28;20187;-58
2022/12/20 11:12:07;;;;;;;4.28;3.10;;;;;;;;;;4961115;28;20928;-58
2022/12/20 11:14:34;;;;;;;5.33;3.47;;;;;;;;;;4960938;28;20294;-58
2022/12/20 11:17:04;;;;;;;5.13;3.00;;;;;;;;;;4962230;28;20948;-60
2022/12/20 11:19:37;;;;;;;4.40;3.13;;;;;;;;;;4964337;28;20190;-60
2022/12/20 11:22:13;;;;;;;7.17;3.30;;;;;;;;;;4963333;28;20183;-60
2022/12/20 11:24:42;;;;;;;4.93;2.70;;;;;;;;;;4946265;28;20207;-60
2022/12/20 11:27:35;;;;;;;3.17;2.60;;;;;;;;;;4961136;28;20254;-59
2022/12/20 11:30:19;;;;;;;2.97;2.67;;;;;;;;;;4925271;28;20202;-59
2022/12/20 11:32:54;;;;;;;3.63;3.00;;;;;;;;;;4964097;28;20243;-59
2022/12/20 11:35:29;;;;;;;5.00;3.10;;;;;;;;;;4945659;28;20638;-60
2022/12/20 11:37:55;;;;;;;3.37;3.00;;;;;;;;;;4954990;28;20175;-59
2022/12/20 11:40:32;;;;;;;3.63;2.80;;;;;;;;;;4968409;28;20230;-58
2022/12/20 11:43:16;;;;;;;2.77;2.57;;;;;;;;;;4962133;28;20395;-58
2022/12/20 11:46:01;;;;;;;3.40;3.00;;;;;;;;;;4966342;28;20238;-59
2022/12/20 11:48:46;;;;;;;3.20;2.90;;;;;;;;;;4964178;28;20254;-61
2022/12/20 11:51:17;;;;;;;4.30;3.07;;;;;;;;;;4961146;28;20199;-61
2022/12/20 11:54:00;;;;;;;3.67;2.70;;;;;;;;;;4962610;28;20179;-59
2022/12/20 11:56:30;;;;;;;3.50;3.20;;;;;;;;;;4962802;28;20186;-59
2022/12/20 11:59:12;;;;;;;3.07;2.73;;;;;;;;;;4964661;28;20184;-60
2022/12/20 12:01:44;;;;;;;3.70;2.63;;;;;;;;;;4962855;28;20183;-60
2022/12/20 12:04:10;;;;;;;2.77;2.40;;;;;;;;;;4953277;28;20175;-58
2022/12/20 12:06:38;;;;;;;4.50;2.83;;;;;;;;;;4947854;28;20251;-58
2022/12/20 12:09:08;;;;;;;2.93;2.53;;;;;;;;;;4966030;28;20188;-61
2022/12/20 12:11:37;;;;;;;5.10;3.03;;;;;;;;;;4962462;28;20208;-60
2022/12/20 12:14:04;;;;;;;2.93;2.67;;;;;;;;;;4952008;28;20909;-59
2022/12/20 12:16:39;;;;;;;2.87;2.57;;;;;;;;;;4962464;28;20195;-58
2022/12/20 12:19:08;;;;;;;3.17;2.87;;;;;;;;;;4954444;28;20210;-59
2022/12/20 12:21:57;;;;;;;3.40;2.77;;;;;;;;;;4965275;28;20632;-59
2022/12/20 12:24:26;;;;;;;2.83;2.60;;;;;;;;;;4966905;28;20710;-59
2022/12/20 12:26:52;;;;;;;3.30;2.90;;;;;;;;;;4964941;28;20915;-59
2022/12/20 12:29:19;;;;;;;3.37;2.93;;;;;;;;;;4969019;28;20207;-59
2022/12/20 12:31:51;;;;;;;3.23;2.80;;;;;;;;;;4964081;28;20215;-60
2022/12/20 12:34:23;;;;;;;3.50;3.17;;;;;;;;;;4966992;28;20219;-59
2022/12/20 12:36:49;;;;;;;2.77;2.57;;;;;;;;;;4961483;28;20172;-59
2022/12/20 12:39:15;;;;;;;3.23;2.93;;;;;;;;;;4965547;28;20821;-59
2022/12/20 12:41:44;;;;;;;4.60;3.43;;;;;;;;;;4957592;28;20194;-59
2022/12/20 12:44:24;;;;;;;3.30;3.00;;;;;;;;;;4968014;28;20171;-58
2022/12/20 12:46:54;;;;;;;2.80;2.60;;;;;;;;;;4965077;28;21100;-59
2022/12/20 12:49:22;;;;;;;4.93;2.70;;;;;;;;;;4966141;28;20215;-59
2022/12/20 12:51:56;;;;;;;3.13;2.73;;;;;;;;;;4966034;28;20214;-59
2022/12/20 12:54:42;;;;;;;4.17;2.97;;;;;;;;;;4964631;28;20175;-59
2022/12/20 12:57:13;;;;;;;3.60;2.60;;;;;;;;;;4946576;28;20172;-59
2022/12/20 12:59:40;;;;;;;3.30;3.00;;;;;;;;;;4966287;28;20180;-59
2022/12/20 13:02:13;;;;;;;3.10;2.73;;;;;;;;;;4963287;28;20183;-59
2022/12/20 13:04:53;;;;;;;2.97;2.57;;;;;;;;;;4960171;28;20192;-59
2022/12/20 13:07:42;;;;;;;4.37;3.40;;;;;;;;;;4965066;28;20225;-59
2022/12/20 13:10:08;;;;;;;4.27;3.40;;;;;;;;;;4964260;28;20274;-60
2022/12/20 13:12:37;;;;;;;4.73;2.87;;;;;;;;;;4964608;28;20214;-59
2022/12/20 13:15:21;;;;;;;3.50;2.90;;;;;;;;;;4966923;28;20176;-59
2022/12/20 13:18:06;;;;;;;3.63;3.03;;;;;;;;;;4964788;28;20270;-60
2022/12/20 13:20:34;;;;;;;3.10;2.50;;;;;;;;;;4949003;28;20675;-60
2022/12/20 13:23:10;;;;;;;3.37;2.90;;;;;;;;;;4966224;28;20219;-60
2022/12/20 13:25:42;;;;;;;3.10;2.57;;;;;;;;;;4965605;28;20476;-60
2022/12/20 13:28:24;;;;;;;2.57;2.37;;;;;;;;;;4964207;28;20643;-58
2022/12/20 13:30:50;;;;;;;5.03;2.73;;;;;;;;;;4961539;28;20295;-60
2022/12/20 13:33:20;;;;;;;3.40;2.47;;;;;;;;;;4968580;28;20235;-58
2022/12/20 13:35:53;;;;;;;3.50;2.80;;;;;;;;;;4967290;28;20188;-58
2022/12/20 13:38:38;;;;;;;3.23;2.70;;;;;;;;;;4948165;28;20184;-60
2022/12/20 13:41:26;;;;;;;3.33;2.70;;;;;;;;;;4949347;28;20297;-58
2022/12/20 13:43:53;;;;;;;2.97;2.53;;;;;;;;;;4966553;28;20183;-58
2022/12/20 13:46:42;;;;;;;2.90;2.60;;;;;;;;;;4962148;28;20238;-60
2022/12/20 13:49:12;;;;;;;2.93;2.67;;;;;;;;;;4965813;28;20255;-58
2022/12/20 13:51:38;;;;;;;3.13;2.80;;;;;;;;;;4964746;28;20210;-59
2022/12/20 13:54:06;;;;;;;3.00;2.67;;;;;;;;;;4965215;28;20180;-58
2022/12/20 13:56:36;;;;;;;3.93;3.27;;;;;;;;;;4934615;28;20473;-59
2022/12/20 13:59:10;;;;;;;3.50;2.70;;;;;;;;;;4951697;28;20549;-58
2022/12/20 14:01:36;;;;;;;3.70;2.80;;;;;;;;;;4960213;28;20178;-59
2022/12/20 14:04:05;;;;;;;3.47;2.83;;;;;;;;;;4965088;28;20184;-59
2022/12/20 14:06:32;;;;;;;4.40;2.63;;;;;;;;;;4964180;28;20194;-59
2022/12/20 14:08:58;;;;;;;4.47;3.10;;;;;;;;;;4965568;28;20240;-59
2022/12/20 14:11:26;;;;;;;2.80;2.60;;;;;;;;;;4963829;28;20418;-59
2022/12/20 14:13:55;;;;;;;4.80;3.03;;;;;;;;;;4957522;28;20631;-58
2022/12/20 14:16:22;;;;;;;5.40;2.60;;;;;;;;;;4963692;28;20337;-58
2022/12/20 14:19:01;;;;;;;2.93;2.50;;;;;;;;;;4959038;28;20195;-58
2022/12/20 14:21:27;;;;;;;3.33;2.90;;;;;;;;;;4963407;28;20194;-58
2022/12/20 14:23:55;;;;;;;5.57;2.60;;;;;;;;;;4959934;28;20245;-59
2022/12/20 14:26:26;;;;;;;5.57;3.50;;;;;;;;;;4961595;28;20185;-59
2022/12/20 14:28:54;;;;;;;3.50;2.70;;;;;;;;;;4963831;28;20238;-57
2022/12/20 14:31:32;;;;;;;2.90;2.67;;;;;;;;;;4963317;28;20214;-60
2022/12/20 14:34:05;;;;;;;5.80;2.87;;;;;;;;;;4961430;28;20277;-58
2022/12/20 14:36:32;;;;;;;4.03;2.77;;;;;;;;;;4957831;28;20734;-58
2022/12/20 14:38:58;;;;;;;3.00;2.70;;;;;;;;;;4960013;28;20180;-59
2022/12/20 14:41:29;;;;;;;3.30;3.00;;;;;;;;;;4940237;28;20184;-58
2022/12/20 14:43:56;;;;;;;3.03;2.73;;;;;;;;;;4963086;28;20548;-60
2022/12/20 14:46:22;;;;;;;3.60;2.97;;;;;;;;;;4965731;28;20245;-59
2022/12/20 14:48:49;;;;;;;3.23;2.93;;;;;;;;;;4963216;28;20658;-60
2022/12/20 14:51:21;;;;;;;3.20;2.90;;;;;;;;;;4958334;28;20243;-60
2022/12/20 14:53:48;;;;;;;4.30;3.10;;;;;;;;;;4956889;28;20192;-59
2022/12/20 14:56:17;;;;;;;3.80;3.50;;;;;;;;;;4964050;28;20189;-59
2022/12/20 14:58:43;;;;;;;3.20;3.00;;;;;;;;;;4962650;28;20176;-59
2022/12/20 15:01:15;;;;;;;6.40;3.83;;;;;;;;;;4961748;28;20544;-59
2022/12/20 15:03:50;;;;;;;5.33;3.60;;;;;;;;;;4957902;28;20194;-59